sensor_id;sensor_type;location;lat;lon;timestamp;temperature;humidity
5476;DHT22;2760;50.000;9.194;2023-05-19T00:00:17;12.00;94.00
5476;DHT22;2760;50.000;9.194;2023-05-19T00:05:14;11.90;94.20
5476;DHT22;2760;50.000;9.194;2023-05-19T00:07:43;12.00;94.40
5476;DHT22;2760;50.000;9.194;2023-05-19T00:10:11;11.90;94.20
5476;DHT22;2760;50.000;9.194;2023-05-19T00:15:07;11.90;94.30
5476;DHT22;2760;50.000;9.194;2023-05-19T00:17:35;11.90;94.30
5476;DHT22;2760;50.000;9.194;2023-05-19T00:20:03;11.90;94.30
5476;DHT22;2760;50.000;9.194;2023-05-19T00:22:34;11.80;94.10
5476;DHT22;2760;50.000;9.194;2023-05-19T00:39:46;11.80;94.40
5476;DHT22;2760;50.000;9.194;2023-05-19T00:44:41;11.70;94.30
5476;DHT22;2760;50.000;9.194;2023-05-19T00:47:08;11.80;94.40
5476;DHT22;2760;50.000;9.194;2023-05-19T00:49:35;11.80;94.80
5476;DHT22;2760;50.000;9.194;2023-05-19T00:52:05;11.80;94.40
5476;DHT22;2760;50.000;9.194;2023-05-19T00:54:33;11.70;94.30
5476;DHT22;2760;50.000;9.194;2023-05-19T00:57:02;11.70;94.60
5476;DHT22;2760;50.000;9.194;2023-05-19T01:04:24;11.50;94.70
5476;DHT22;2760;50.000;9.194;2023-05-19T01:06:51;12.80;95.80
5476;DHT22;2760;50.000;9.194;2023-05-19T01:09:20;11.50;95.90
5476;DHT22;2760;50.000;9.194;2023-05-19T01:11:47;11.60;94.60
5476;DHT22;2760;50.000;9.194;2023-05-19T01:14:16;13.70;96.00
5476;DHT22;2760;50.000;9.194;2023-05-19T01:16:48;11.50;94.70
5476;DHT22;2760;50.000;9.194;2023-05-19T01:19:46;11.50;94.60
5476;DHT22;2760;50.000;9.194;2023-05-19T01:22:26;13.60;95.80
5476;DHT22;2760;50.000;9.194;2023-05-19T01:28:20;11.40;94.80
5476;DHT22;2760;50.000;9.194;2023-05-19T01:30:54;11.30;94.90
5476;DHT22;2760;50.000;9.194;2023-05-19T01:33:23;11.40;94.80
5476;DHT22;2760;50.000;9.194;2023-05-19T01:35:52;11.50;94.70
5476;DHT22;2760;50.000;9.194;2023-05-19T01:40:50;11.40;94.70
5476;DHT22;2760;50.000;9.194;2023-05-19T01:43:20;11.40;94.80
5476;DHT22;2760;50.000;9.194;2023-05-19T01:45:49;13.10;95.90
5476;DHT22;2760;50.000;9.194;2023-05-19T01:48:18;11.40;94.90
5476;DHT22;2760;50.000;9.194;2023-05-19T01:50:45;11.30;94.90
5476;DHT22;2760;50.000;9.194;2023-05-19T01:53:13;11.20;95.10
5476;DHT22;2760;50.000;9.194;2023-05-19T01:55:43;11.20;95.10
5476;DHT22;2760;50.000;9.194;2023-05-19T01:58:16;11.20;95.10
5476;DHT22;2760;50.000;9.194;2023-05-19T02:00:51;11.30;95.00
5476;DHT22;2760;50.000;9.194;2023-05-19T02:03:41;11.30;95.00
5476;DHT22;2760;50.000;9.194;2023-05-19T02:06:21;11.20;94.90
5476;DHT22;2760;50.000;9.194;2023-05-19T02:08:56;13.50;96.20
5476;DHT22;2760;50.000;9.194;2023-05-19T02:11:35;11.40;95.20
5476;DHT22;2760;50.000;9.194;2023-05-19T02:14:07;11.30;95.10
5476;DHT22;2760;50.000;9.194;2023-05-19T02:16:35;11.30;94.80
5476;DHT22;2760;50.000;9.194;2023-05-19T02:19:05;13.30;96.20
5476;DHT22;2760;50.000;9.194;2023-05-19T02:21:32;12.70;96.00
5476;DHT22;2760;50.000;9.194;2023-05-19T02:24:00;11.20;95.00
5476;DHT22;2760;50.000;9.194;2023-05-19T02:26:27;11.10;95.00
5476;DHT22;2760;50.000;9.194;2023-05-19T02:28:54;11.10;95.10
5476;DHT22;2760;50.000;9.194;2023-05-19T02:31:23;11.10;96.00
5476;DHT22;2760;50.000;9.194;2023-05-19T02:33:50;11.00;95.30
5476;DHT22;2760;50.000;9.194;2023-05-19T02:36:19;11.00;95.40
5476;DHT22;2760;50.000;9.194;2023-05-19T02:41:14;10.90;95.50
5476;DHT22;2760;50.000;9.194;2023-05-19T02:43:41;10.90;95.50
5476;DHT22;2760;50.000;9.194;2023-05-19T02:46:08;11.10;95.30
5476;DHT22;2760;50.000;9.194;2023-05-19T02:48:35;10.90;95.60
5476;DHT22;2760;50.000;9.194;2023-05-19T02:51:03;10.90;96.30
5476;DHT22;2760;50.000;9.194;2023-05-19T02:53:32;10.70;95.80
5476;DHT22;2760;50.000;9.194;2023-05-19T02:55:59;10.80;95.90
5476;DHT22;2760;50.000;9.194;2023-05-19T03:08:16;10.50;96.20
5476;DHT22;2760;50.000;9.194;2023-05-19T03:10:46;10.40;96.50
5476;DHT22;2760;50.000;9.194;2023-05-19T03:15:42;10.10;97.10
5476;DHT22;2760;50.000;9.194;2023-05-19T03:23:08;10.20;96.80
5476;DHT22;2760;50.000;9.194;2023-05-19T03:25:35;10.20;96.80
5476;DHT22;2760;50.000;9.194;2023-05-19T03:28:05;10.20;96.80
5476;DHT22;2760;50.000;9.194;2023-05-19T03:30:32;8.10;96.80
5476;DHT22;2760;50.000;9.194;2023-05-19T03:33:08;10.30;97.00
5476;DHT22;2760;50.000;9.194;2023-05-19T03:38:03;9.90;98.00
5476;DHT22;2760;50.000;9.194;2023-05-19T03:40:30;11.20;99.20
5476;DHT22;2760;50.000;9.194;2023-05-19T03:43:05;11.10;99.00
5476;DHT22;2760;50.000;9.194;2023-05-19T03:48:24;9.40;99.10
5476;DHT22;2760;50.000;9.194;2023-05-19T03:51:09;9.30;99.40
5476;DHT22;2760;50.000;9.194;2023-05-19T03:56:06;10.90;99.70
5476;DHT22;2760;50.000;9.194;2023-05-19T03:58:39;9.30;99.50
5476;DHT22;2760;50.000;9.194;2023-05-19T04:01:08;9.30;99.50
5476;DHT22;2760;50.000;9.194;2023-05-19T04:06:02;9.40;99.50
5476;DHT22;2760;50.000;9.194;2023-05-19T04:10:58;9.60;99.00
5476;DHT22;2760;50.000;9.194;2023-05-19T04:15:53;9.60;99.10
5476;DHT22;2760;50.000;9.194;2023-05-19T04:20:48;9.40;99.60
5476;DHT22;2760;50.000;9.194;2023-05-19T04:25:43;9.30;99.80
5476;DHT22;2760;50.000;9.194;2023-05-19T04:33:12;9.40;99.70
5476;DHT22;2760;50.000;9.194;2023-05-19T04:50:38;9.90;99.20
5476;DHT22;2760;50.000;9.194;2023-05-19T05:03:03;10.40;98.00
5476;DHT22;2760;50.000;9.194;2023-05-19T05:05:33;10.50;98.00
5476;DHT22;2760;50.000;9.194;2023-05-19T05:08:03;10.60;97.70
5476;DHT22;2760;50.000;9.194;2023-05-19T05:18:01;10.80;97.60
5476;DHT22;2760;50.000;9.194;2023-05-19T05:20:30;10.90;97.50
5476;DHT22;2760;50.000;9.194;2023-05-19T05:25:28;11.00;97.50
5476;DHT22;2760;50.000;9.194;2023-05-19T05:27:55;11.10;97.20
5476;DHT22;2760;50.000;9.194;2023-05-19T05:30:23;11.20;97.60
5476;DHT22;2760;50.000;9.194;2023-05-19T05:32:51;11.30;97.50
5476;DHT22;2760;50.000;9.194;2023-05-19T05:35:32;11.30;98.00
5476;DHT22;2760;50.000;9.194;2023-05-19T05:37:59;11.40;97.70
5476;DHT22;2760;50.000;9.194;2023-05-19T05:40:29;13.40;98.50
5476;DHT22;2760;50.000;9.194;2023-05-19T05:42:56;11.80;96.50
5476;DHT22;2760;50.000;9.194;2023-05-19T05:45:26;13.80;98.00
5476;DHT22;2760;50.000;9.194;2023-05-19T05:47:55;11.80;96.80
5476;DHT22;2760;50.000;9.194;2023-05-19T05:50:22;11.80;96.30
5476;DHT22;2760;50.000;9.194;2023-05-19T05:52:52;11.90;97.00
5476;DHT22;2760;50.000;9.194;2023-05-19T05:55:23;12.10;96.80
5476;DHT22;2760;50.000;9.194;2023-05-19T05:57:52;12.40;97.30
5476;DHT22;2760;50.000;9.194;2023-05-19T06:00:19;13.80;97.40
5476;DHT22;2760;50.000;9.194;2023-05-19T06:02:51;12.50;96.00
5476;DHT22;2760;50.000;9.194;2023-05-19T06:05:19;12.40;95.70
5476;DHT22;2760;50.000;9.194;2023-05-19T06:07:47;12.50;96.00
5476;DHT22;2760;50.000;9.194;2023-05-19T06:10:22;12.50;96.00
5476;DHT22;2760;50.000;9.194;2023-05-19T06:15:18;12.50;95.60
5476;DHT22;2760;50.000;9.194;2023-05-19T06:18:05;12.60;95.40
5476;DHT22;2760;50.000;9.194;2023-05-19T06:20:32;13.50;96.80
5476;DHT22;2760;50.000;9.194;2023-05-19T06:23:00;12.70;95.70
5476;DHT22;2760;50.000;9.194;2023-05-19T06:25:28;14.60;96.40
5476;DHT22;2760;50.000;9.194;2023-05-19T06:27:56;13.90;96.20
5476;DHT22;2760;50.000;9.194;2023-05-19T06:30:25;13.10;95.30
5476;DHT22;2760;50.000;9.194;2023-05-19T06:33:07;13.00;95.30
5476;DHT22;2760;50.000;9.194;2023-05-19T06:35:34;13.20;94.80
5476;DHT22;2760;50.000;9.194;2023-05-19T06:38:02;13.30;94.70
5476;DHT22;2760;50.000;9.194;2023-05-19T06:40:29;13.30;94.40
5476;DHT22;2760;50.000;9.194;2023-05-19T06:42:56;14.80;95.40
5476;DHT22;2760;50.000;9.194;2023-05-19T06:45:40;13.50;95.20
5476;DHT22;2760;50.000;9.194;2023-05-19T06:48:07;13.50;94.70
5476;DHT22;2760;50.000;9.194;2023-05-19T06:50:34;15.40;95.30
5476;DHT22;2760;50.000;9.194;2023-05-19T06:53:03;13.80;94.90
5476;DHT22;2760;50.000;9.194;2023-05-19T06:55:31;14.00;94.60
5476;DHT22;2760;50.000;9.194;2023-05-19T06:57:59;14.20;95.20
5476;DHT22;2760;50.000;9.194;2023-05-19T07:00:30;14.30;95.30
5476;DHT22;2760;50.000;9.194;2023-05-19T07:03:01;15.40;96.00
5476;DHT22;2760;50.000;9.194;2023-05-19T07:05:28;14.40;95.40
5476;DHT22;2760;50.000;9.194;2023-05-19T07:07:59;14.40;95.30
5476;DHT22;2760;50.000;9.194;2023-05-19T07:10:29;14.60;95.70
5476;DHT22;2760;50.000;9.194;2023-05-19T07:12:57;14.80;94.70
5476;DHT22;2760;50.000;9.194;2023-05-19T07:15:29;14.80;94.80
5476;DHT22;2760;50.000;9.194;2023-05-19T07:17:57;15.00;94.70
5476;DHT22;2760;50.000;9.194;2023-05-19T07:20:26;15.10;95.30
5476;DHT22;2760;50.000;9.194;2023-05-19T07:22:54;15.30;93.70
5476;DHT22;2760;50.000;9.194;2023-05-19T07:25:21;15.40;92.60
5476;DHT22;2760;50.000;9.194;2023-05-19T07:27:49;15.50;92.30
5476;DHT22;2760;50.000;9.194;2023-05-19T07:30:16;15.50;92.30
5476;DHT22;2760;50.000;9.194;2023-05-19T07:32:43;15.80;92.60
5476;DHT22;2760;50.000;9.194;2023-05-19T07:35:12;16.10;92.30
5476;DHT22;2760;50.000;9.194;2023-05-19T07:37:43;16.30;92.00
5476;DHT22;2760;50.000;9.194;2023-05-19T07:40:10;16.60;91.70
5476;DHT22;2760;50.000;9.194;2023-05-19T07:42:38;16.40;91.90
5476;DHT22;2760;50.000;9.194;2023-05-19T07:45:06;16.30;91.70
5476;DHT22;2760;50.000;9.194;2023-05-19T07:47:33;16.30;92.00
5476;DHT22;2760;50.000;9.194;2023-05-19T07:50:00;16.60;91.90
5476;DHT22;2760;50.000;9.194;2023-05-19T07:52:27;16.60;91.00
5476;DHT22;2760;50.000;9.194;2023-05-19T07:54:58;18.50;93.10
5476;DHT22;2760;50.000;9.194;2023-05-19T07:57:25;18.80;92.20
5476;DHT22;2760;50.000;9.194;2023-05-19T07:59:52;17.10;91.80
5476;DHT22;2760;50.000;9.194;2023-05-19T08:02:19;17.60;91.20
5476;DHT22;2760;50.000;9.194;2023-05-19T08:04:46;17.70;89.40
5476;DHT22;2760;50.000;9.194;2023-05-19T08:07:13;17.80;90.40
5476;DHT22;2760;50.000;9.194;2023-05-19T08:09:40;17.70;88.70
5476;DHT22;2760;50.000;9.194;2023-05-19T08:12:08;17.60;89.60
5476;DHT22;2760;50.000;9.194;2023-05-19T08:14:35;17.40;89.60
5476;DHT22;2760;50.000;9.194;2023-05-19T08:17:04;17.20;89.10
5476;DHT22;2760;50.000;9.194;2023-05-19T08:19:31;17.10;89.90
5476;DHT22;2760;50.000;9.194;2023-05-19T08:21:58;17.00;89.80
5476;DHT22;2760;50.000;9.194;2023-05-19T08:24:25;17.00;89.00
5476;DHT22;2760;50.000;9.194;2023-05-19T08:26:54;17.20;87.60
5476;DHT22;2760;50.000;9.194;2023-05-19T08:29:30;17.20;88.20
5476;DHT22;2760;50.000;9.194;2023-05-19T08:31:58;17.60;88.60
5476;DHT22;2760;50.000;9.194;2023-05-19T08:34:27;17.50;88.10
5476;DHT22;2760;50.000;9.194;2023-05-19T08:36:54;17.40;88.00
5476;DHT22;2760;50.000;9.194;2023-05-19T08:39:22;16.80;87.80
5476;DHT22;2760;50.000;9.194;2023-05-19T08:41:52;17.30;87.00
5476;DHT22;2760;50.000;9.194;2023-05-19T08:44:19;16.90;88.20
5476;DHT22;2760;50.000;9.194;2023-05-19T08:46:48;17.20;88.70
5476;DHT22;2760;50.000;9.194;2023-05-19T08:49:21;18.10;89.80
5476;DHT22;2760;50.000;9.194;2023-05-19T08:51:54;17.30;89.40
5476;DHT22;2760;50.000;9.194;2023-05-19T08:54:26;17.40;90.00
5476;DHT22;2760;50.000;9.194;2023-05-19T08:56:55;17.40;87.80
5476;DHT22;2760;50.000;9.194;2023-05-19T08:59:22;17.20;88.40
5476;DHT22;2760;50.000;9.194;2023-05-19T09:01:50;17.40;89.80
5476;DHT22;2760;50.000;9.194;2023-05-19T09:04:20;17.50;88.60
5476;DHT22;2760;50.000;9.194;2023-05-19T09:06:48;17.40;88.80
5476;DHT22;2760;50.000;9.194;2023-05-19T09:09:16;17.40;89.00
5476;DHT22;2760;50.000;9.194;2023-05-19T09:11:45;17.80;90.00
5476;DHT22;2760;50.000;9.194;2023-05-19T09:14:12;17.90;88.90
5476;DHT22;2760;50.000;9.194;2023-05-19T09:16:39;18.10;87.50
5476;DHT22;2760;50.000;9.194;2023-05-19T09:19:12;18.10;87.80
5476;DHT22;2760;50.000;9.194;2023-05-19T09:21:41;18.20;88.20
5476;DHT22;2760;50.000;9.194;2023-05-19T09:24:08;18.50;86.40
5476;DHT22;2760;50.000;9.194;2023-05-19T09:26:36;18.60;85.90
5476;DHT22;2760;50.000;9.194;2023-05-19T09:29:14;18.60;85.60
5476;DHT22;2760;50.000;9.194;2023-05-19T09:31:47;16.60;84.00
5476;DHT22;2760;50.000;9.194;2023-05-19T09:34:16;18.50;86.00
5476;DHT22;2760;50.000;9.194;2023-05-19T09:36:45;18.50;87.40
5476;DHT22;2760;50.000;9.194;2023-05-19T09:39:14;18.20;85.20
5476;DHT22;2760;50.000;9.194;2023-05-19T09:41:42;18.20;86.00
5476;DHT22;2760;50.000;9.194;2023-05-19T09:44:21;18.40;86.40
5476;DHT22;2760;50.000;9.194;2023-05-19T09:46:48;18.40;85.40
5476;DHT22;2760;50.000;9.194;2023-05-19T09:49:21;18.50;86.20
5476;DHT22;2760;50.000;9.194;2023-05-19T09:51:49;19.30;86.40
5476;DHT22;2760;50.000;9.194;2023-05-19T09:54:22;18.70;85.00
5476;DHT22;2760;50.000;9.194;2023-05-19T09:56:56;18.70;85.10
5476;DHT22;2760;50.000;9.194;2023-05-19T09:59:24;19.00;85.90
5476;DHT22;2760;50.000;9.194;2023-05-19T10:01:53;18.90;84.80
5476;DHT22;2760;50.000;9.194;2023-05-19T10:04:24;19.20;85.30
5476;DHT22;2760;50.000;9.194;2023-05-19T10:06:54;19.30;85.10
5476;DHT22;2760;50.000;9.194;2023-05-19T10:09:25;19.10;85.60
5476;DHT22;2760;50.000;9.194;2023-05-19T10:11:54;19.40;84.90
5476;DHT22;2760;50.000;9.194;2023-05-19T10:14:23;19.20;85.20
5476;DHT22;2760;50.000;9.194;2023-05-19T10:16:54;18.90;85.40
5476;DHT22;2760;50.000;9.194;2023-05-19T10:19:24;19.20;86.50
5476;DHT22;2760;50.000;9.194;2023-05-19T10:21:52;19.40;86.00
5476;DHT22;2760;50.000;9.194;2023-05-19T10:24:23;19.30;86.10
5476;DHT22;2760;50.000;9.194;2023-05-19T10:26:53;19.20;86.10
5476;DHT22;2760;50.000;9.194;2023-05-19T10:29:24;18.90;87.60
5476;DHT22;2760;50.000;9.194;2023-05-19T10:31:58;18.90;86.70
5476;DHT22;2760;50.000;9.194;2023-05-19T10:34:50;18.80;86.80
5476;DHT22;2760;50.000;9.194;2023-05-19T10:37:30;19.10;87.80
5476;DHT22;2760;50.000;9.194;2023-05-19T10:39:59;19.00;87.20
5476;DHT22;2760;50.000;9.194;2023-05-19T10:42:32;18.00;86.10
5476;DHT22;2760;50.000;9.194;2023-05-19T10:45:08;19.30;86.90
5476;DHT22;2760;50.000;9.194;2023-05-19T10:47:39;18.90;86.60
5476;DHT22;2760;50.000;9.194;2023-05-19T10:50:09;19.90;86.80
5476;DHT22;2760;50.000;9.194;2023-05-19T10:52:37;20.30;86.80
5476;DHT22;2760;50.000;9.194;2023-05-19T10:55:07;20.40;86.90
5476;DHT22;2760;50.000;9.194;2023-05-19T10:57:52;20.20;85.70
5476;DHT22;2760;50.000;9.194;2023-05-19T11:00:28;20.30;87.00
5476;DHT22;2760;50.000;9.194;2023-05-19T11:03:11;20.40;86.00
5476;DHT22;2760;50.000;9.194;2023-05-19T11:05:40;20.60;86.10
5476;DHT22;2760;50.000;9.194;2023-05-19T11:08:10;20.70;85.10
5476;DHT22;2760;50.000;9.194;2023-05-19T11:10:38;20.90;86.70
5476;DHT22;2760;50.000;9.194;2023-05-19T11:13:06;21.10;85.70
5476;DHT22;2760;50.000;9.194;2023-05-19T11:15:34;21.40;85.30
5476;DHT22;2760;50.000;9.194;2023-05-19T11:18:03;21.30;85.80
5476;DHT22;2760;50.000;9.194;2023-05-19T11:20:31;21.80;85.00
5476;DHT22;2760;50.000;9.194;2023-05-19T11:23:04;21.70;85.10
5476;DHT22;2760;50.000;9.194;2023-05-19T11:25:45;21.40;84.90
5476;DHT22;2760;50.000;9.194;2023-05-19T11:28:14;21.20;85.30
5476;DHT22;2760;50.000;9.194;2023-05-19T11:30:43;21.70;84.70
5476;DHT22;2760;50.000;9.194;2023-05-19T11:33:11;21.60;84.00
5476;DHT22;2760;50.000;9.194;2023-05-19T11:35:39;21.40;84.90
5476;DHT22;2760;50.000;9.194;2023-05-19T11:38:10;21.40;85.30
5476;DHT22;2760;50.000;9.194;2023-05-19T11:40:39;21.50;85.30
5476;DHT22;2760;50.000;9.194;2023-05-19T11:43:06;21.60;84.40
5476;DHT22;2760;50.000;9.194;2023-05-19T11:45:34;21.70;84.80
5476;DHT22;2760;50.000;9.194;2023-05-19T11:48:01;21.60;84.40
5476;DHT22;2760;50.000;9.194;2023-05-19T11:50:30;21.20;85.90
5476;DHT22;2760;50.000;9.194;2023-05-19T11:53:01;21.90;84.30
5476;DHT22;2760;50.000;9.194;2023-05-19T11:55:31;21.80;84.50
5476;DHT22;2760;50.000;9.194;2023-05-19T11:57:59;22.10;84.10
5476;DHT22;2760;50.000;9.194;2023-05-19T12:00:27;22.00;85.00
5476;DHT22;2760;50.000;9.194;2023-05-19T12:02:55;22.30;85.40
5476;DHT22;2760;50.000;9.194;2023-05-19T12:05:26;22.10;83.70
5476;DHT22;2760;50.000;9.194;2023-05-19T12:07:54;22.60;84.60
5476;DHT22;2760;50.000;9.194;2023-05-19T12:10:22;23.00;83.50
5476;DHT22;2760;50.000;9.194;2023-05-19T12:12:52;22.60;83.30
5476;DHT22;2760;50.000;9.194;2023-05-19T12:15:20;22.30;84.10
5476;DHT22;2760;50.000;9.194;2023-05-19T12:17:48;22.40;84.40
5476;DHT22;2760;50.000;9.194;2023-05-19T12:20:16;22.30;84.80
5476;DHT22;2760;50.000;9.194;2023-05-19T12:22:44;22.00;84.60
5476;DHT22;2760;50.000;9.194;2023-05-19T12:25:11;21.50;85.00
5476;DHT22;2760;50.000;9.194;2023-05-19T12:27:38;21.20;84.90
5476;DHT22;2760;50.000;9.194;2023-05-19T12:30:11;22.00;86.30
5476;DHT22;2760;50.000;9.194;2023-05-19T12:32:39;19.60;83.90
5476;DHT22;2760;50.000;9.194;2023-05-19T12:35:08;21.10;86.10
5476;DHT22;2760;50.000;9.194;2023-05-19T12:37:39;21.10;87.50
5476;DHT22;2760;50.000;9.194;2023-05-19T12:40:08;20.90;85.40
5476;DHT22;2760;50.000;9.194;2023-05-19T12:42:35;21.00;86.80
5476;DHT22;2760;50.000;9.194;2023-05-19T12:45:05;19.80;85.00
5476;DHT22;2760;50.000;9.194;2023-05-19T12:47:34;21.30;87.00
5476;DHT22;2760;50.000;9.194;2023-05-19T12:50:04;21.40;85.20
5476;DHT22;2760;50.000;9.194;2023-05-19T12:52:34;21.20;83.00
5476;DHT22;2760;50.000;9.194;2023-05-19T12:55:08;21.40;85.00
5476;DHT22;2760;50.000;9.194;2023-05-19T12:57:37;21.40;83.60
5476;DHT22;2760;50.000;9.194;2023-05-19T13:00:06;20.20;83.90
5476;DHT22;2760;50.000;9.194;2023-05-19T13:02:54;21.20;84.70
5476;DHT22;2760;50.000;9.194;2023-05-19T13:05:21;21.10;85.30
5476;DHT22;2760;50.000;9.194;2023-05-19T13:07:53;21.30;85.90
5476;DHT22;2760;50.000;9.194;2023-05-19T13:10:20;21.10;84.50
5476;DHT22;2760;50.000;9.194;2023-05-19T13:12:48;21.00;83.90
5476;DHT22;2760;50.000;9.194;2023-05-19T13:15:15;21.10;82.90
5476;DHT22;2760;50.000;9.194;2023-05-19T13:17:46;21.20;83.90
5476;DHT22;2760;50.000;9.194;2023-05-19T13:20:14;21.20;82.60
5476;DHT22;2760;50.000;9.194;2023-05-19T13:22:41;21.20;81.70
5476;DHT22;2760;50.000;9.194;2023-05-19T13:25:09;21.20;81.40
5476;DHT22;2760;50.000;9.194;2023-05-19T13:27:36;21.10;81.90
5476;DHT22;2760;50.000;9.194;2023-05-19T13:30:04;21.40;82.30
5476;DHT22;2760;50.000;9.194;2023-05-19T13:32:32;21.10;82.50
5476;DHT22;2760;50.000;9.194;2023-05-19T13:35:02;21.60;82.00
5476;DHT22;2760;50.000;9.194;2023-05-19T13:37:29;21.20;81.70
5476;DHT22;2760;50.000;9.194;2023-05-19T13:39:56;21.40;82.20
5476;DHT22;2760;50.000;9.194;2023-05-19T13:42:24;21.30;82.60
5476;DHT22;2760;50.000;9.194;2023-05-19T13:44:53;21.30;81.90
5476;DHT22;2760;50.000;9.194;2023-05-19T13:47:21;21.30;82.20
5476;DHT22;2760;50.000;9.194;2023-05-19T13:49:49;21.60;81.70
5476;DHT22;2760;50.000;9.194;2023-05-19T13:52:18;21.20;81.10
5476;DHT22;2760;50.000;9.194;2023-05-19T13:54:46;21.20;81.90
5476;DHT22;2760;50.000;9.194;2023-05-19T13:57:14;21.40;81.10
5476;DHT22;2760;50.000;9.194;2023-05-19T13:59:42;21.50;82.20
5476;DHT22;2760;50.000;9.194;2023-05-19T14:02:10;21.50;80.10
5476;DHT22;2760;50.000;9.194;2023-05-19T14:04:39;21.40;81.20
5476;DHT22;2760;50.000;9.194;2023-05-19T14:07:07;19.90;79.10
5476;DHT22;2760;50.000;9.194;2023-05-19T14:09:36;21.50;81.80
5476;DHT22;2760;50.000;9.194;2023-05-19T14:12:04;21.40;80.40
5476;DHT22;2760;50.000;9.194;2023-05-19T14:14:31;21.10;81.40
5476;DHT22;2760;50.000;9.194;2023-05-19T14:16:58;21.10;81.40
5476;DHT22;2760;50.000;9.194;2023-05-19T14:19:34;21.10;81.00
5476;DHT22;2760;50.000;9.194;2023-05-19T14:22:01;21.00;82.00
5476;DHT22;2760;50.000;9.194;2023-05-19T14:24:28;20.90;81.50
5476;DHT22;2760;50.000;9.194;2023-05-19T14:26:58;20.80;82.70
5476;DHT22;2760;50.000;9.194;2023-05-19T14:29:27;20.70;82.10
5476;DHT22;2760;50.000;9.194;2023-05-19T14:31:55;21.00;83.00
5476;DHT22;2760;50.000;9.194;2023-05-19T14:34:23;21.00;81.10
5476;DHT22;2760;50.000;9.194;2023-05-19T14:36:50;21.10;80.80
5476;DHT22;2760;50.000;9.194;2023-05-19T14:39:17;21.10;81.10
5476;DHT22;2760;50.000;9.194;2023-05-19T14:41:45;20.80;80.40
5476;DHT22;2760;50.000;9.194;2023-05-19T14:44:16;20.80;80.80
5476;DHT22;2760;50.000;9.194;2023-05-19T14:46:43;20.90;80.10
5476;DHT22;2760;50.000;9.194;2023-05-19T14:49:10;20.70;80.60
5476;DHT22;2760;50.000;9.194;2023-05-19T14:51:38;20.80;80.10
5476;DHT22;2760;50.000;9.194;2023-05-19T14:54:05;21.10;79.80
5476;DHT22;2760;50.000;9.194;2023-05-19T14:56:32;21.20;81.20
5476;DHT22;2760;50.000;9.194;2023-05-19T14:58:59;21.00;80.30
5476;DHT22;2760;50.000;9.194;2023-05-19T15:01:28;20.90;79.40
5476;DHT22;2760;50.000;9.194;2023-05-19T15:03:55;20.90;80.50
5476;DHT22;2760;50.000;9.194;2023-05-19T15:06:22;21.00;79.00
5476;DHT22;2760;50.000;9.194;2023-05-19T15:08:49;20.90;80.10
5476;DHT22;2760;50.000;9.194;2023-05-19T15:11:16;20.90;81.10
5476;DHT22;2760;50.000;9.194;2023-05-19T15:13:43;20.60;79.40
5476;DHT22;2760;50.000;9.194;2023-05-19T15:16:12;20.50;80.20
5476;DHT22;2760;50.000;9.194;2023-05-19T15:18:41;20.60;80.50
5476;DHT22;2760;50.000;9.194;2023-05-19T15:21:08;20.60;80.60
5476;DHT22;2760;50.000;9.194;2023-05-19T15:23:35;20.80;80.60
5476;DHT22;2760;50.000;9.194;2023-05-19T15:26:04;20.60;80.40
5476;DHT22;2760;50.000;9.194;2023-05-19T15:28:32;20.60;80.70
5476;DHT22;2760;50.000;9.194;2023-05-19T15:30:59;20.60;81.50
5476;DHT22;2760;50.000;9.194;2023-05-19T15:33:26;19.70;79.40
5476;DHT22;2760;50.000;9.194;2023-05-19T15:35:56;20.60;81.10
5476;DHT22;2760;50.000;9.194;2023-05-19T15:38:23;20.70;81.70
5476;DHT22;2760;50.000;9.194;2023-05-19T15:40:50;20.70;81.40
5476;DHT22;2760;50.000;9.194;2023-05-19T15:43:17;20.70;81.30
5476;DHT22;2760;50.000;9.194;2023-05-19T15:45:45;20.50;81.50
5476;DHT22;2760;50.000;9.194;2023-05-19T15:48:12;20.50;81.20
5476;DHT22;2760;50.000;9.194;2023-05-19T15:50:39;20.40;82.00
5476;DHT22;2760;50.000;9.194;2023-05-19T15:53:08;18.70;80.60
5476;DHT22;2760;50.000;9.194;2023-05-19T15:55:35;20.60;82.50
5476;DHT22;2760;50.000;9.194;2023-05-19T15:58:02;20.50;82.30
5476;DHT22;2760;50.000;9.194;2023-05-19T16:00:29;20.60;82.30
5476;DHT22;2760;50.000;9.194;2023-05-19T16:02:56;20.70;82.50
5476;DHT22;2760;50.000;9.194;2023-05-19T16:05:23;20.80;82.70
5476;DHT22;2760;50.000;9.194;2023-05-19T16:07:50;20.80;82.10
5476;DHT22;2760;50.000;9.194;2023-05-19T16:10:18;20.80;82.30
5476;DHT22;2760;50.000;9.194;2023-05-19T16:12:46;20.90;83.20
5476;DHT22;2760;50.000;9.194;2023-05-19T16:15:12;20.90;83.10
5476;DHT22;2760;50.000;9.194;2023-05-19T16:17:40;20.60;82.90
5476;DHT22;2760;50.000;9.194;2023-05-19T16:20:08;20.50;82.20
5476;DHT22;2760;50.000;9.194;2023-05-19T16:22:35;20.40;82.50
5476;DHT22;2760;50.000;9.194;2023-05-19T16:25:03;20.40;83.60
5476;DHT22;2760;50.000;9.194;2023-05-19T16:27:31;20.60;83.30
5476;DHT22;2760;50.000;9.194;2023-05-19T16:29:58;20.30;83.10
5476;DHT22;2760;50.000;9.194;2023-05-19T16:32:27;20.40;83.80
5476;DHT22;2760;50.000;9.194;2023-05-19T16:34:54;20.30;85.20
5476;DHT22;2760;50.000;9.194;2023-05-19T16:37:21;20.20;83.50
5476;DHT22;2760;50.000;9.194;2023-05-19T16:39:48;20.20;84.10
5476;DHT22;2760;50.000;9.194;2023-05-19T16:42:15;20.60;84.40
5476;DHT22;2760;50.000;9.194;2023-05-19T16:44:43;20.10;84.30
5476;DHT22;2760;50.000;9.194;2023-05-19T16:47:10;20.00;84.80
5476;DHT22;2760;50.000;9.194;2023-05-19T16:49:37;20.10;84.60
5476;DHT22;2760;50.000;9.194;2023-05-19T16:52:05;20.00;84.40
5476;DHT22;2760;50.000;9.194;2023-05-19T16:54:34;20.00;86.00
5476;DHT22;2760;50.000;9.194;2023-05-19T16:57:04;20.10;84.80
5476;DHT22;2760;50.000;9.194;2023-05-19T16:59:34;19.90;86.00
5476;DHT22;2760;50.000;9.194;2023-05-19T17:02:03;19.90;86.00
5476;DHT22;2760;50.000;9.194;2023-05-19T17:04:30;19.90;85.00
5476;DHT22;2760;50.000;9.194;2023-05-19T17:06:57;19.70;85.20
5476;DHT22;2760;50.000;9.194;2023-05-19T17:09:24;19.70;85.50
5476;DHT22;2760;50.000;9.194;2023-05-19T17:11:51;17.70;83.30
5476;DHT22;2760;50.000;9.194;2023-05-19T17:14:19;19.70;86.90
5476;DHT22;2760;50.000;9.194;2023-05-19T17:16:46;19.50;84.60
5476;DHT22;2760;50.000;9.194;2023-05-19T17:19:14;19.50;85.40
5476;DHT22;2760;50.000;9.194;2023-05-19T17:21:41;19.50;85.40
5476;DHT22;2760;50.000;9.194;2023-05-19T17:24:08;19.40;85.20
5476;DHT22;2760;50.000;9.194;2023-05-19T17:26:56;19.60;84.60
5476;DHT22;2760;50.000;9.194;2023-05-19T17:29:37;17.80;84.90
5476;DHT22;2760;50.000;9.194;2023-05-19T17:32:06;19.40;85.40
5476;DHT22;2760;50.000;9.194;2023-05-19T17:34:34;19.40;86.00
5476;DHT22;2760;50.000;9.194;2023-05-19T17:37:01;18.70;85.00
5476;DHT22;2760;50.000;9.194;2023-05-19T17:39:28;19.40;85.80
5476;DHT22;2760;50.000;9.194;2023-05-19T17:41:58;19.30;85.30
5476;DHT22;2760;50.000;9.194;2023-05-19T17:44:25;19.20;86.00
5476;DHT22;2760;50.000;9.194;2023-05-19T17:46:55;19.20;85.80
5476;DHT22;2760;50.000;9.194;2023-05-19T17:49:22;18.20;86.30
5476;DHT22;2760;50.000;9.194;2023-05-19T17:51:55;19.10;86.00
5476;DHT22;2760;50.000;9.194;2023-05-19T17:54:22;20.30;87.70
5476;DHT22;2760;50.000;9.194;2023-05-19T17:56:52;19.10;86.10
5476;DHT22;2760;50.000;9.194;2023-05-19T17:59:20;19.00;85.30
5476;DHT22;2760;50.000;9.194;2023-05-19T18:01:49;19.10;86.50
5476;DHT22;2760;50.000;9.194;2023-05-19T18:04:17;19.10;86.40
5476;DHT22;2760;50.000;9.194;2023-05-19T18:06:44;19.00;86.60
5476;DHT22;2760;50.000;9.194;2023-05-19T18:09:15;18.90;87.60